sensor_id;sensor_type;location;lat;lon;timestamp;temperature;humidity
20750;DHT22;10535;50.664;4.564;2023-07-22T00:02:23;13.70;99.90
20750;DHT22;10535;50.664;4.564;2023-07-22T00:04:49;13.60;99.90
20750;DHT22;10535;50.664;4.564;2023-07-22T00:07:15;13.60;99.90
20750;DHT22;10535;50.664;4.564;2023-07-22T00:09:42;13.60;99.90
20750;DHT22;10535;50.664;4.564;2023-07-22T00:12:08;13.60;99.90
20750;DHT22;10535;50.664;4.564;2023-07-22T00:14:39;13.60;99.90
20750;DHT22;10535;50.664;4.564;2023-07-22T00:17:05;13.70;99.90
20750;DHT22;10535;50.664;4.564;2023-07-22T00:19:30;13.50;99.90
20750;DHT22;10535;50.664;4.564;2023-07-22T00:21:56;13.50;99.90
20750;DHT22;10535;50.664;4.564;2023-07-22T00:24:22;13.40;99.90
20750;DHT22;10535;50.664;4.564;2023-07-22T00:26:48;13.40;99.90
20750;DHT22;10535;50.664;4.564;2023-07-22T00:29:15;13.40;99.90
20750;DHT22;10535;50.664;4.564;2023-07-22T00:31:41;13.40;99.90
20750;DHT22;10535;50.664;4.564;2023-07-22T00:34:07;13.40;99.90
20750;DHT22;10535;50.664;4.564;2023-07-22T00:36:32;13.30;99.90
20750;DHT22;10535;50.664;4.564;2023-07-22T00:38:58;13.30;99.90
20750;DHT22;10535;50.664;4.564;2023-07-22T00:41:23;13.30;99.90
20750;DHT22;10535;50.664;4.564;2023-07-22T00:43:49;13.20;99.90
20750;DHT22;10535;50.664;4.564;2023-07-22T00:46:15;13.20;99.90
20750;DHT22;10535;50.664;4.564;2023-07-22T00:48:40;13.10;99.90
20750;DHT22;10535;50.664;4.564;2023-07-22T00:51:07;13.20;99.90
20750;DHT22;10535;50.664;4.564;2023-07-22T00:53:33;13.30;99.90
20750;DHT22;10535;50.664;4.564;2023-07-22T00:55:59;13.20;99.90
20750;DHT22;10535;50.664;4.564;2023-07-22T00:58:24;13.10;99.90
20750;DHT22;10535;50.664;4.564;2023-07-22T01:00:50;13.00;99.90
20750;DHT22;10535;50.664;4.564;2023-07-22T01:03:16;12.90;99.90
20750;DHT22;10535;50.664;4.564;2023-07-22T01:05:44;12.80;99.90
20750;DHT22;10535;50.664;4.564;2023-07-22T01:08:10;12.80;99.90
20750;DHT22;10535;50.664;4.564;2023-07-22T01:10:36;12.80;99.90
20750;DHT22;10535;50.664;4.564;2023-07-22T01:13:01;12.80;99.90
20750;DHT22;10535;50.664;4.564;2023-07-22T01:15:28;12.80;99.90
20750;DHT22;10535;50.664;4.564;2023-07-22T01:17:54;12.70;99.90
20750;DHT22;10535;50.664;4.564;2023-07-22T01:20:22;12.70;99.90
20750;DHT22;10535;50.664;4.564;2023-07-22T01:22:52;12.70;99.90
20750;DHT22;10535;50.664;4.564;2023-07-22T01:25:20;12.70;99.90
20750;DHT22;10535;50.664;4.564;2023-07-22T01:27:48;12.70;99.90
20750;DHT22;10535;50.664;4.564;2023-07-22T01:30:15;12.70;99.90
20750;DHT22;10535;50.664;4.564;2023-07-22T01:32:40;12.70;99.90
20750;DHT22;10535;50.664;4.564;2023-07-22T01:35:07;12.60;99.90
20750;DHT22;10535;50.664;4.564;2023-07-22T01:37:33;12.60;99.90
20750;DHT22;10535;50.664;4.564;2023-07-22T01:40:00;12.70;99.90
20750;DHT22;10535;50.664;4.564;2023-07-22T01:42:25;12.60;99.90
20750;DHT22;10535;50.664;4.564;2023-07-22T01:45:11;12.50;99.90
20750;DHT22;10535;50.664;4.564;2023-07-22T01:47:38;12.40;99.90
20750;DHT22;10535;50.664;4.564;2023-07-22T01:50:06;12.40;99.90
20750;DHT22;10535;50.664;4.564;2023-07-22T01:52:32;12.40;99.90
20750;DHT22;10535;50.664;4.564;2023-07-22T01:54:58;12.30;99.90
20750;DHT22;10535;50.664;4.564;2023-07-22T01:57:23;12.40;99.90
20750;DHT22;10535;50.664;4.564;2023-07-22T01:59:50;12.40;99.90
20750;DHT22;10535;50.664;4.564;2023-07-22T02:02:15;12.40;99.90
20750;DHT22;10535;50.664;4.564;2023-07-22T02:04:41;12.50;99.90
20750;DHT22;10535;50.664;4.564;2023-07-22T02:07:07;12.50;99.90
20750;DHT22;10535;50.664;4.564;2023-07-22T02:09:32;12.40;99.90
20750;DHT22;10535;50.664;4.564;2023-07-22T02:11:58;12.30;99.90
20750;DHT22;10535;50.664;4.564;2023-07-22T02:14:24;12.30;99.90
20750;DHT22;10535;50.664;4.564;2023-07-22T02:16:50;12.30;99.90
20750;DHT22;10535;50.664;4.564;2023-07-22T02:19:15;12.30;99.90
20750;DHT22;10535;50.664;4.564;2023-07-22T02:21:41;12.30;99.90
20750;DHT22;10535;50.664;4.564;2023-07-22T02:24:09;12.30;99.90
20750;DHT22;10535;50.664;4.564;2023-07-22T02:26:34;12.30;99.90
20750;DHT22;10535;50.664;4.564;2023-07-22T02:29:00;12.20;99.90
20750;DHT22;10535;50.664;4.564;2023-07-22T02:31:25;12.20;99.90
20750;DHT22;10535;50.664;4.564;2023-07-22T02:33:51;12.20;99.90
20750;DHT22;10535;50.664;4.564;2023-07-22T02:36:17;12.20;99.90
20750;DHT22;10535;50.664;4.564;2023-07-22T02:38:42;12.10;99.90
20750;DHT22;10535;50.664;4.564;2023-07-22T02:41:08;12.10;99.90
20750;DHT22;10535;50.664;4.564;2023-07-22T02:43:34;12.00;99.90
20750;DHT22;10535;50.664;4.564;2023-07-22T02:46:04;12.00;99.90
20750;DHT22;10535;50.664;4.564;2023-07-22T02:48:33;12.00;99.90
20750;DHT22;10535;50.664;4.564;2023-07-22T02:51:04;12.20;99.90
20750;DHT22;10535;50.664;4.564;2023-07-22T02:53:34;12.20;99.90
20750;DHT22;10535;50.664;4.564;2023-07-22T02:56:02;12.10;99.90
20750;DHT22;10535;50.664;4.564;2023-07-22T02:58:28;12.10;99.90
20750;DHT22;10535;50.664;4.564;2023-07-22T03:00:53;12.10;99.90
20750;DHT22;10535;50.664;4.564;2023-07-22T03:03:19;12.10;99.90
20750;DHT22;10535;50.664;4.564;2023-07-22T03:05:45;12.10;99.90
20750;DHT22;10535;50.664;4.564;2023-07-22T03:08:10;12.10;99.90
20750;DHT22;10535;50.664;4.564;2023-07-22T03:10:36;12.00;99.90
20750;DHT22;10535;50.664;4.564;2023-07-22T03:13:02;12.00;99.90
20750;DHT22;10535;50.664;4.564;2023-07-22T03:15:29;11.80;99.90
20750;DHT22;10535;50.664;4.564;2023-07-22T03:17:55;11.80;99.90
20750;DHT22;10535;50.664;4.564;2023-07-22T03:20:27;11.90;99.90
20750;DHT22;10535;50.664;4.564;2023-07-22T03:22:52;11.80;99.90
20750;DHT22;10535;50.664;4.564;2023-07-22T03:25:19;11.80;99.90
20750;DHT22;10535;50.664;4.564;2023-07-22T03:27:46;11.90;99.90
20750;DHT22;10535;50.664;4.564;2023-07-22T03:30:14;11.90;99.90
20750;DHT22;10535;50.664;4.564;2023-07-22T03:32:46;11.90;99.90
20750;DHT22;10535;50.664;4.564;2023-07-22T03:35:18;11.90;99.90
20750;DHT22;10535;50.664;4.564;2023-07-22T03:37:43;11.80;99.90
20750;DHT22;10535;50.664;4.564;2023-07-22T03:40:10;11.70;99.90
20750;DHT22;10535;50.664;4.564;2023-07-22T03:42:50;11.70;99.90
20750;DHT22;10535;50.664;4.564;2023-07-22T03:45:17;11.70;99.90
20750;DHT22;10535;50.664;4.564;2023-07-22T03:47:44;11.70;99.90
20750;DHT22;10535;50.664;4.564;2023-07-22T03:50:11;11.80;99.90
20750;DHT22;10535;50.664;4.564;2023-07-22T03:52:36;11.70;99.90
20750;DHT22;10535;50.664;4.564;2023-07-22T03:55:02;11.70;99.90
20750;DHT22;10535;50.664;4.564;2023-07-22T03:57:28;11.70;99.90
20750;DHT22;10535;50.664;4.564;2023-07-22T03:59:56;11.80;99.90
20750;DHT22;10535;50.664;4.564;2023-07-22T04:02:22;11.80;99.90
20750;DHT22;10535;50.664;4.564;2023-07-22T04:04:49;11.80;99.90
20750;DHT22;10535;50.664;4.564;2023-07-22T04:07:15;11.80;99.90
20750;DHT22;10535;50.664;4.564;2023-07-22T04:09:41;11.90;99.90
20750;DHT22;10535;50.664;4.564;2023-07-22T04:12:07;12.00;99.90
20750;DHT22;10535;50.664;4.564;2023-07-22T04:14:33;12.00;99.90
20750;DHT22;10535;50.664;4.564;2023-07-22T04:16:58;12.10;99.90
20750;DHT22;10535;50.664;4.564;2023-07-22T04:19:24;12.30;99.90
20750;DHT22;10535;50.664;4.564;2023-07-22T04:21:50;12.10;99.90
20750;DHT22;10535;50.664;4.564;2023-07-22T04:24:15;12.10;99.90
20750;DHT22;10535;50.664;4.564;2023-07-22T04:26:48;12.10;99.90
20750;DHT22;10535;50.664;4.564;2023-07-22T04:29:36;12.20;99.90
20750;DHT22;10535;50.664;4.564;2023-07-22T04:32:47;12.20;99.90
20750;DHT22;10535;50.664;4.564;2023-07-22T04:36:09;12.30;99.90
20750;DHT22;10535;50.664;4.564;2023-07-22T04:38:50;12.50;99.90
20750;DHT22;10535;50.664;4.564;2023-07-22T04:41:43;12.60;99.90
20750;DHT22;10535;50.664;4.564;2023-07-22T04:45:01;12.70;99.90
20750;DHT22;10535;50.664;4.564;2023-07-22T04:48:10;12.70;99.90
20750;DHT22;10535;50.664;4.564;2023-07-22T04:50:55;12.70;99.90
20750;DHT22;10535;50.664;4.564;2023-07-22T04:53:44;12.80;99.90
20750;DHT22;10535;50.664;4.564;2023-07-22T04:56:30;12.90;99.90
20750;DHT22;10535;50.664;4.564;2023-07-22T04:58:57;13.20;99.90
20750;DHT22;10535;50.664;4.564;2023-07-22T05:01:45;13.20;99.90
20750;DHT22;10535;50.664;4.564;2023-07-22T05:04:14;13.50;99.90
20750;DHT22;10535;50.664;4.564;2023-07-22T05:06:50;13.70;99.90
20750;DHT22;10535;50.664;4.564;2023-07-22T05:09:58;13.80;99.90
20750;DHT22;10535;50.664;4.564;2023-07-22T05:12:27;14.30;99.90
20750;DHT22;10535;50.664;4.564;2023-07-22T05:15:09;14.60;99.90
20750;DHT22;10535;50.664;4.564;2023-07-22T05:17:56;14.60;99.90
20750;DHT22;10535;50.664;4.564;2023-07-22T05:20:33;14.60;99.90
20750;DHT22;10535;50.664;4.564;2023-07-22T05:23:17;14.80;99.90
20750;DHT22;10535;50.664;4.564;2023-07-22T05:25:43;14.80;99.90
20750;DHT22;10535;50.664;4.564;2023-07-22T05:28:32;14.90;99.90
20750;DHT22;10535;50.664;4.564;2023-07-22T05:31:01;15.10;99.90
20750;DHT22;10535;50.664;4.564;2023-07-22T05:34:16;15.30;99.90
20750;DHT22;10535;50.664;4.564;2023-07-22T05:36:44;15.60;99.90
20750;DHT22;10535;50.664;4.564;2023-07-22T05:39:10;15.90;99.90
20750;DHT22;10535;50.664;4.564;2023-07-22T05:41:57;15.90;99.90
20750;DHT22;10535;50.664;4.564;2023-07-22T05:44:29;16.10;99.90
20750;DHT22;10535;50.664;4.564;2023-07-22T05:46:55;16.40;99.90
20750;DHT22;10535;50.664;4.564;2023-07-22T05:49:48;16.20;99.90
20750;DHT22;10535;50.664;4.564;2023-07-22T05:52:17;16.00;99.90
20750;DHT22;10535;50.664;4.564;2023-07-22T05:54:43;16.20;99.90
20750;DHT22;10535;50.664;4.564;2023-07-22T05:57:09;16.40;99.90
20750;DHT22;10535;50.664;4.564;2023-07-22T05:59:37;16.40;99.90
20750;DHT22;10535;50.664;4.564;2023-07-22T06:02:06;16.50;99.90
20750;DHT22;10535;50.664;4.564;2023-07-22T06:04:33;16.70;99.90
20750;DHT22;10535;50.664;4.564;2023-07-22T06:06:59;16.80;99.90
20750;DHT22;10535;50.664;4.564;2023-07-22T06:09:25;17.00;99.90
20750;DHT22;10535;50.664;4.564;2023-07-22T06:11:50;17.20;99.90
20750;DHT22;10535;50.664;4.564;2023-07-22T06:14:16;17.20;99.90
20750;DHT22;10535;50.664;4.564;2023-07-22T06:16:41;17.20;99.90
20750;DHT22;10535;50.664;4.564;2023-07-22T06:19:07;17.40;99.90
20750;DHT22;10535;50.664;4.564;2023-07-22T06:21:33;17.30;99.90
20750;DHT22;10535;50.664;4.564;2023-07-22T06:23:58;17.50;99.90
20750;DHT22;10535;50.664;4.564;2023-07-22T06:26:24;17.30;99.90
20750;DHT22;10535;50.664;4.564;2023-07-22T06:28:49;17.40;99.90
20750;DHT22;10535;50.664;4.564;2023-07-22T06:31:15;17.30;99.90
20750;DHT22;10535;50.664;4.564;2023-07-22T06:33:42;17.60;99.90
20750;DHT22;10535;50.664;4.564;2023-07-22T06:36:07;17.60;99.90
20750;DHT22;10535;50.664;4.564;2023-07-22T06:38:33;17.60;99.90
20750;DHT22;10535;50.664;4.564;2023-07-22T06:40:59;17.80;99.90
20750;DHT22;10535;50.664;4.564;2023-07-22T06:43:24;17.60;99.90
20750;DHT22;10535;50.664;4.564;2023-07-22T06:45:50;17.70;99.90
20750;DHT22;10535;50.664;4.564;2023-07-22T06:48:15;17.70;99.90
20750;DHT22;10535;50.664;4.564;2023-07-22T06:50:47;17.80;99.90
20750;DHT22;10535;50.664;4.564;2023-07-22T06:53:13;17.90;99.90
20750;DHT22;10535;50.664;4.564;2023-07-22T06:55:40;17.90;99.90
20750;DHT22;10535;50.664;4.564;2023-07-22T06:58:05;18.20;99.90
20750;DHT22;10535;50.664;4.564;2023-07-22T07:00:31;18.70;99.90
20750;DHT22;10535;50.664;4.564;2023-07-22T07:02:57;19.00;99.90
20750;DHT22;10535;50.664;4.564;2023-07-22T07:05:23;19.00;99.90
20750;DHT22;10535;50.664;4.564;2023-07-22T07:07:49;19.30;99.90
20750;DHT22;10535;50.664;4.564;2023-07-22T07:10:14;19.70;99.90
20750;DHT22;10535;50.664;4.564;2023-07-22T07:12:40;19.70;99.90
20750;DHT22;10535;50.664;4.564;2023-07-22T07:15:06;19.60;99.90
20750;DHT22;10535;50.664;4.564;2023-07-22T07:17:32;19.50;99.90
20750;DHT22;10535;50.664;4.564;2023-07-22T07:19:58;19.50;99.90
20750;DHT22;10535;50.664;4.564;2023-07-22T07:22:23;19.70;99.90
20750;DHT22;10535;50.664;4.564;2023-07-22T07:24:49;19.60;99.90
20750;DHT22;10535;50.664;4.564;2023-07-22T07:27:14;19.60;99.90
20750;DHT22;10535;50.664;4.564;2023-07-22T07:29:40;19.60;99.90
20750;DHT22;10535;50.664;4.564;2023-07-22T07:32:06;19.70;99.90
20750;DHT22;10535;50.664;4.564;2023-07-22T07:34:31;19.90;99.90
20750;DHT22;10535;50.664;4.564;2023-07-22T07:36:57;19.90;99.90
20750;DHT22;10535;50.664;4.564;2023-07-22T07:39:22;20.00;99.90
20750;DHT22;10535;50.664;4.564;2023-07-22T07:41:48;20.40;99.90
20750;DHT22;10535;50.664;4.564;2023-07-22T07:44:14;20.70;99.90
20750;DHT22;10535;50.664;4.564;2023-07-22T07:46:39;20.80;99.90
20750;DHT22;10535;50.664;4.564;2023-07-22T07:49:05;21.00;99.90
20750;DHT22;10535;50.664;4.564;2023-07-22T07:51:31;20.70;99.90
20750;DHT22;10535;50.664;4.564;2023-07-22T07:53:58;20.50;99.90
20750;DHT22;10535;50.664;4.564;2023-07-22T07:56:24;20.70;99.90
20750;DHT22;10535;50.664;4.564;2023-07-22T07:58:52;20.50;99.90
20750;DHT22;10535;50.664;4.564;2023-07-22T08:01:17;20.80;99.90
20750;DHT22;10535;50.664;4.564;2023-07-22T08:03:43;20.90;99.90
20750;DHT22;10535;50.664;4.564;2023-07-22T08:06:10;20.90;99.90
20750;DHT22;10535;50.664;4.564;2023-07-22T08:08:36;20.80;99.90
20750;DHT22;10535;50.664;4.564;2023-07-22T08:11:11;20.80;99.90
20750;DHT22;10535;50.664;4.564;2023-07-22T08:13:38;20.70;99.90
20750;DHT22;10535;50.664;4.564;2023-07-22T08:16:06;21.00;99.90
20750;DHT22;10535;50.664;4.564;2023-07-22T08:18:32;21.20;99.90
20750;DHT22;10535;50.664;4.564;2023-07-22T08:20:58;21.20;99.90
20750;DHT22;10535;50.664;4.564;2023-07-22T08:23:24;21.40;99.90
20750;DHT22;10535;50.664;4.564;2023-07-22T08:25:49;21.30;99.90
20750;DHT22;10535;50.664;4.564;2023-07-22T08:28:16;21.40;99.90
20750;DHT22;10535;50.664;4.564;2023-07-22T08:30:42;21.30;99.90
20750;DHT22;10535;50.664;4.564;2023-07-22T08:33:09;21.30;99.90
20750;DHT22;10535;50.664;4.564;2023-07-22T08:35:35;21.10;99.90
20750;DHT22;10535;50.664;4.564;2023-07-22T08:38:02;21.30;99.90
20750;DHT22;10535;50.664;4.564;2023-07-22T08:40:33;21.60;99.90
20750;DHT22;10535;50.664;4.564;2023-07-22T08:42:59;21.80;99.90
20750;DHT22;10535;50.664;4.564;2023-07-22T08:45:29;21.80;99.90
20750;DHT22;10535;50.664;4.564;2023-07-22T08:47:58;21.60;99.90
20750;DHT22;10535;50.664;4.564;2023-07-22T08:50:28;21.30;99.90
20750;DHT22;10535;50.664;4.564;2023-07-22T08:52:55;21.40;99.90
20750;DHT22;10535;50.664;4.564;2023-07-22T08:55:22;21.50;99.90
20750;DHT22;10535;50.664;4.564;2023-07-22T08:57:50;21.80;99.90
20750;DHT22;10535;50.664;4.564;2023-07-22T09:00:16;22.20;99.90
20750;DHT22;10535;50.664;4.564;2023-07-22T09:02:42;22.20;99.90
20750;DHT22;10535;50.664;4.564;2023-07-22T09:05:08;22.00;99.90
20750;DHT22;10535;50.664;4.564;2023-07-22T09:07:35;21.70;99.90
20750;DHT22;10535;50.664;4.564;2023-07-22T09:10:01;21.70;99.90
20750;DHT22;10535;50.664;4.564;2023-07-22T09:12:28;21.70;99.90
20750;DHT22;10535;50.664;4.564;2023-07-22T09:14:54;21.80;99.90
20750;DHT22;10535;50.664;4.564;2023-07-22T09:17:21;21.60;99.90
20750;DHT22;10535;50.664;4.564;2023-07-22T09:19:52;21.80;99.90
20750;DHT22;10535;50.664;4.564;2023-07-22T09:22:24;21.90;99.90
20750;DHT22;10535;50.664;4.564;2023-07-22T09:24:49;21.70;99.90
20750;DHT22;10535;50.664;4.564;2023-07-22T09:27:15;21.70;99.90
20750;DHT22;10535;50.664;4.564;2023-07-22T09:29:41;21.90;99.90
20750;DHT22;10535;50.664;4.564;2023-07-22T09:32:07;22.00;99.90
20750;DHT22;10535;50.664;4.564;2023-07-22T09:34:32;22.00;99.90
20750;DHT22;10535;50.664;4.564;2023-07-22T09:36:59;22.20;99.90
20750;DHT22;10535;50.664;4.564;2023-07-22T09:39:29;22.10;99.90
20750;DHT22;10535;50.664;4.564;2023-07-22T09:41:56;22.10;99.90
20750;DHT22;10535;50.664;4.564;2023-07-22T09:44:22;22.10;99.90
20750;DHT22;10535;50.664;4.564;2023-07-22T09:46:51;22.40;99.90
20750;DHT22;10535;50.664;4.564;2023-07-22T09:49:18;22.50;99.90
20750;DHT22;10535;50.664;4.564;2023-07-22T09:51:43;22.50;99.90
20750;DHT22;10535;50.664;4.564;2023-07-22T09:54:09;22.40;99.90
20750;DHT22;10535;50.664;4.564;2023-07-22T09:56:46;22.50;99.90
20750;DHT22;10535;50.664;4.564;2023-07-22T09:59:14;22.30;99.90
20750;DHT22;10535;50.664;4.564;2023-07-22T10:01:41;22.20;99.90
20750;DHT22;10535;50.664;4.564;2023-07-22T10:04:08;22.00;99.90
20750;DHT22;10535;50.664;4.564;2023-07-22T10:06:36;22.20;99.90
20750;DHT22;10535;50.664;4.564;2023-07-22T10:09:04;22.10;99.90
20750;DHT22;10535;50.664;4.564;2023-07-22T10:11:34;22.30;99.90
20750;DHT22;10535;50.664;4.564;2023-07-22T10:14:04;22.40;99.90
20750;DHT22;10535;50.664;4.564;2023-07-22T10:16:30;22.40;99.90
20750;DHT22;10535;50.664;4.564;2023-07-22T10:18:57;22.20;99.90
20750;DHT22;10535;50.664;4.564;2023-07-22T10:21:24;22.30;99.90
20750;DHT22;10535;50.664;4.564;2023-07-22T10:23:51;22.20;99.90
20750;DHT22;10535;50.664;4.564;2023-07-22T10:26:18;22.00;99.90
20750;DHT22;10535;50.664;4.564;2023-07-22T10:28:45;22.30;99.90
20750;DHT22;10535;50.664;4.564;2023-07-22T10:31:15;22.30;99.90
20750;DHT22;10535;50.664;4.564;2023-07-22T10:33:47;22.10;99.90
20750;DHT22;10535;50.664;4.564;2023-07-22T10:36:15;22.20;99.90
20750;DHT22;10535;50.664;4.564;2023-07-22T10:38:44;21.90;99.90
20750;DHT22;10535;50.664;4.564;2023-07-22T10:41:22;22.00;99.90
20750;DHT22;10535;50.664;4.564;2023-07-22T10:43:58;21.90;99.90
20750;DHT22;10535;50.664;4.564;2023-07-22T10:46:34;22.20;99.90
20750;DHT22;10535;50.664;4.564;2023-07-22T10:49:13;22.40;99.90
20750;DHT22;10535;50.664;4.564;2023-07-22T10:51:39;22.60;99.90
20750;DHT22;10535;50.664;4.564;2023-07-22T10:54:13;22.70;99.90
20750;DHT22;10535;50.664;4.564;2023-07-22T10:56:44;22.80;99.90
20750;DHT22;10535;50.664;4.564;2023-07-22T10:59:11;22.90;99.90
20750;DHT22;10535;50.664;4.564;2023-07-22T11:01:38;22.90;99.90
20750;DHT22;10535;50.664;4.564;2023-07-22T11:35:05;23.10;99.90
20750;DHT22;10535;50.664;4.564;2023-07-22T11:37:31;23.10;99.90
20750;DHT22;10535;50.664;4.564;2023-07-22T11:40:01;23.50;99.90
20750;DHT22;10535;50.664;4.564;2023-07-22T11:42:28;23.60;99.90
20750;DHT22;10535;50.664;4.564;2023-07-22T11:44:54;23.60;99.90
20750;DHT22;10535;50.664;4.564;2023-07-22T11:47:29;23.70;99.90
20750;DHT22;10535;50.664;4.564;2023-07-22T11:49:55;23.80;99.90
20750;DHT22;10535;50.664;4.564;2023-07-22T11:52:21;23.80;99.90
20750;DHT22;10535;50.664;4.564;2023-07-22T11:54:47;24.00;99.90
20750;DHT22;10535;50.664;4.564;2023-07-22T11:57:14;24.10;99.90
20750;DHT22;10535;50.664;4.564;2023-07-22T11:59:44;24.00;99.90
20750;DHT22;10535;50.664;4.564;2023-07-22T12:02:17;23.70;99.90
20750;DHT22;10535;50.664;4.564;2023-07-22T12:05:01;23.70;99.90
20750;DHT22;10535;50.664;4.564;2023-07-22T12:07:30;23.60;99.90
20750;DHT22;10535;50.664;4.564;2023-07-22T12:09:59;23.70;99.90
20750;DHT22;10535;50.664;4.564;2023-07-22T12:12:34;23.70;99.90
20750;DHT22;10535;50.664;4.564;2023-07-22T12:15:10;23.70;99.90
20750;DHT22;10535;50.664;4.564;2023-07-22T12:18:03;23.70;99.90
20750;DHT22;10535;50.664;4.564;2023-07-22T12:20:33;23.90;99.90
20750;DHT22;10535;50.664;4.564;2023-07-22T12:23:01;23.90;99.90
20750;DHT22;10535;50.664;4.564;2023-07-22T12:25:26;24.00;99.90
20750;DHT22;10535;50.664;4.564;2023-07-22T12:27:52;24.10;99.90
20750;DHT22;10535;50.664;4.564;2023-07-22T12:30:20;24.10;99.90
20750;DHT22;10535;50.664;4.564;2023-07-22T12:32:46;24.00;99.90
20750;DHT22;10535;50.664;4.564;2023-07-22T12:35:13;24.20;99.90
20750;DHT22;10535;50.664;4.564;2023-07-22T12:37:39;24.60;99.90
20750;DHT22;10535;50.664;4.564;2023-07-22T12:40:05;24.90;99.90
20750;DHT22;10535;50.664;4.564;2023-07-22T12:42:34;25.00;99.90
20750;DHT22;10535;50.664;4.564;2023-07-22T12:44:59;24.60;99.90
20750;DHT22;10535;50.664;4.564;2023-07-22T12:47:25;24.40;99.90
20750;DHT22;10535;50.664;4.564;2023-07-22T12:49:50;24.20;99.90
20750;DHT22;10535;50.664;4.564;2023-07-22T12:52:16;24.40;99.90
20750;DHT22;10535;50.664;4.564;2023-07-22T12:54:42;24.10;99.90
20750;DHT22;10535;50.664;4.564;2023-07-22T12:57:07;24.20;99.90
20750;DHT22;10535;50.664;4.564;2023-07-22T12:59:35;24.00;99.90
20750;DHT22;10535;50.664;4.564;2023-07-22T13:02:00;23.60;99.90
20750;DHT22;10535;50.664;4.564;2023-07-22T13:04:30;23.70;99.90
20750;DHT22;10535;50.664;4.564;2023-07-22T13:06:56;23.80;99.90
20750;DHT22;10535;50.664;4.564;2023-07-22T13:09:23;23.90;99.90
20750;DHT22;10535;50.664;4.564;2023-07-22T13:11:48;24.10;99.90
20750;DHT22;10535;50.664;4.564;2023-07-22T13:14:14;24.40;99.90
20750;DHT22;10535;50.664;4.564;2023-07-22T13:16:40;24.60;99.90
20750;DHT22;10535;50.664;4.564;2023-07-22T13:19:06;24.70;99.90
20750;DHT22;10535;50.664;4.564;2023-07-22T13:21:31;24.80;99.90
20750;DHT22;10535;50.664;4.564;2023-07-22T13:23:57;24.60;99.90
20750;DHT22;10535;50.664;4.564;2023-07-22T13:26:22;24.70;99.90
20750;DHT22;10535;50.664;4.564;2023-07-22T13:28:48;24.60;99.90
20750;DHT22;10535;50.664;4.564;2023-07-22T13:31:13;24.70;99.90
20750;DHT22;10535;50.664;4.564;2023-07-22T13:33:39;25.10;99.90
20750;DHT22;10535;50.664;4.564;2023-07-22T13:36:06;25.00;99.90
20750;DHT22;10535;50.664;4.564;2023-07-22T13:38:31;25.10;99.90
20750;DHT22;10535;50.664;4.564;2023-07-22T13:40:57;24.90;99.90
20750;DHT22;10535;50.664;4.564;2023-07-22T13:43:24;25.00;99.90
20750;DHT22;10535;50.664;4.564;2023-07-22T13:45:50;25.20;99.90
20750;DHT22;10535;50.664;4.564;2023-07-22T13:48:16;25.60;99.90
20750;DHT22;10535;50.664;4.564;2023-07-22T13:50:41;25.30;99.90
20750;DHT22;10535;50.664;4.564;2023-07-22T13:53:07;25.40;99.90
20750;DHT22;10535;50.664;4.564;2023-07-22T13:55:33;25.60;99.90
20750;DHT22;10535;50.664;4.564;2023-07-22T13:58:00;25.30;99.90
20750;DHT22;10535;50.664;4.564;2023-07-22T14:00:25;24.90;99.90
20750;DHT22;10535;50.664;4.564;2023-07-22T14:02:51;24.70;99.90
20750;DHT22;10535;50.664;4.564;2023-07-22T14:05:17;25.00;99.90
20750;DHT22;10535;50.664;4.564;2023-07-22T14:07:42;24.80;99.90
20750;DHT22;10535;50.664;4.564;2023-07-22T14:10:08;24.90;99.90
20750;DHT22;10535;50.664;4.564;2023-07-22T14:12:35;25.20;99.90
20750;DHT22;10535;50.664;4.564;2023-07-22T14:15:01;24.60;99.90
20750;DHT22;10535;50.664;4.564;2023-07-22T14:17:29;24.30;99.90
20750;DHT22;10535;50.664;4.564;2023-07-22T14:19:57;24.10;99.90
20750;DHT22;10535;50.664;4.564;2023-07-22T14:22:23;23.50;99.90
20750;DHT22;10535;50.664;4.564;2023-07-22T14:24:49;23.40;99.90
20750;DHT22;10535;50.664;4.564;2023-07-22T14:27:15;23.30;99.90
20750;DHT22;10535;50.664;4.564;2023-07-22T14:29:40;23.20;99.90
20750;DHT22;10535;50.664;4.564;2023-07-22T14:32:06;23.20;99.90
20750;DHT22;10535;50.664;4.564;2023-07-22T14:34:32;23.20;99.90
20750;DHT22;10535;50.664;4.564;2023-07-22T14:36:58;23.20;99.90
20750;DHT22;10535;50.664;4.564;2023-07-22T14:39:23;23.20;99.90
20750;DHT22;10535;50.664;4.564;2023-07-22T14:41:49;23.20;99.90
20750;DHT22;10535;50.664;4.564;2023-07-22T14:44:14;23.40;99.90
20750;DHT22;10535;50.664;4.564;2023-07-22T14:46:40;23.70;99.90
20750;DHT22;10535;50.664;4.564;2023-07-22T14:49:05;23.90;99.90
20750;DHT22;10535;50.664;4.564;2023-07-22T14:51:35;24.40;99.90
20750;DHT22;10535;50.664;4.564;2023-07-22T14:54:00;24.60;99.90
20750;DHT22;10535;50.664;4.564;2023-07-22T14:56:26;24.90;99.90
20750;DHT22;10535;50.664;4.564;2023-07-22T14:58:52;25.00;99.90
20750;DHT22;10535;50.664;4.564;2023-07-22T15:01:17;25.00;99.90
20750;DHT22;10535;50.664;4.564;2023-07-22T15:03:44;24.80;99.90
20750;DHT22;10535;50.664;4.564;2023-07-22T15:06:10;25.10;99.90
20750;DHT22;10535;50.664;4.564;2023-07-22T15:08:35;25.20;99.90
20750;DHT22;10535;50.664;4.564;2023-07-22T15:11:01;25.20;99.90
20750;DHT22;10535;50.664;4.564;2023-07-22T15:13:27;25.20;99.90
20750;DHT22;10535;50.664;4.564;2023-07-22T15:15:53;25.00;99.90
20750;DHT22;10535;50.664;4.564;2023-07-22T15:18:23;24.90;99.90
20750;DHT22;10535;50.664;4.564;2023-07-22T15:20:52;25.00;99.90
20750;DHT22;10535;50.664;4.564;2023-07-22T15:23:18;25.00;99.90
20750;DHT22;10535;50.664;4.564;2023-07-22T15:25:43;24.90;99.90
20750;DHT22;10535;50.664;4.564;2023-07-22T15:28:09;24.80;99.90
20750;DHT22;10535;50.664;4.564;2023-07-22T15:30:35;24.80;99.90
20750;DHT22;10535;50.664;4.564;2023-07-22T15:33:00;24.50;99.90
20750;DHT22;10535;50.664;4.564;2023-07-22T15:35:26;24.10;99.90
20750;DHT22;10535;50.664;4.564;2023-07-22T15:37:52;23.70;99.90
20750;DHT22;10535;50.664;4.564;2023-07-22T15:40:19;23.60;99.90
20750;DHT22;10535;50.664;4.564;2023-07-22T15:42:45;23.60;99.90
20750;DHT22;10535;50.664;4.564;2023-07-22T15:45:12;23.60;99.90
20750;DHT22;10535;50.664;4.564;2023-07-22T15:47:38;23.30;99.90
20750;DHT22;10535;50.664;4.564;2023-07-22T15:50:04;23.10;99.90
20750;DHT22;10535;50.664;4.564;2023-07-22T15:52:30;23.00;99.90
20750;DHT22;10535;50.664;4.564;2023-07-22T15:54:56;23.20;99.90
20750;DHT22;10535;50.664;4.564;2023-07-22T15:57:21;23.20;99.90
20750;DHT22;10535;50.664;4.564;2023-07-22T15:59:47;23.30;99.90
20750;DHT22;10535;50.664;4.564;2023-07-22T16:02:13;23.70;99.90
20750;DHT22;10535;50.664;4.564;2023-07-22T16:04:40;23.80;99.90
20750;DHT22;10535;50.664;4.564;2023-07-22T16:07:06;23.90;99.90
20750;DHT22;10535;50.664;4.564;2023-07-22T16:09:32;23.90;99.90